Time;durP1;ratioP1;P1;durP2;ratioP2;P2;SDS_P1;SDS_P2;PMS_P1;PMS_P2;Temp;Humidity;BMP_temperature;BMP_pressure;BME280_temperature;BME280_humidity;BME280_pressure;Samples;Min_cycle;Max_cycle;Signal;HPM_P1;HPM_P2
2021/05/13 00:00:20;;;;;;;1.52;0.68;;;13.50;72.10;;;;;;2364667;53;20977;-65
2021/05/13 00:02:46;;;;;;;2.58;0.77;;;13.40;71.80;;;;;;2363864;54;20973;-66
2021/05/13 00:05:14;;;;;;;1.67;0.70;;;13.40;72.00;;;;;;2369257;53;21454;-65
2021/05/13 00:07:41;;;;;;;1.92;0.85;;;13.50;72.20;;;;;;2448899;52;21462;-65
2021/05/13 00:10:15;;;;;;;3.25;0.80;;;13.40;72.10;;;;;;2370207;53;20992;-66
2021/05/13 00:12:48;;;;;;;2.55;0.60;;;13.40;71.90;;;;;;2369060;53;20934;-66
2021/05/13 00:15:59;;;;;;;1.98;0.68;;;13.40;72.10;;;;;;2369102;53;20942;-66
2021/05/13 00:18:26;;;;;;;2.28;0.65;;;13.30;71.60;;;;;;2620587;52;20930;-65
2021/05/13 00:20:53;;;;;;;2.37;0.77;;;13.30;71.90;;;;;;2368920;53;21453;-65
2021/05/13 00:23:20;;;;;;;3.53;0.88;;;13.30;72.00;;;;;;2365616;53;21376;-67
2021/05/13 00:25:50;;;;;;;1.83;0.65;;;13.20;72.00;;;;;;2369236;53;20918;-65
2021/05/13 00:28:17;;;;;;;3.05;1.00;;;13.20;72.00;;;;;;2368794;53;20950;-67
2021/05/13 00:30:44;;;;;;;1.52;0.70;;;13.20;72.00;;;;;;2369437;53;20992;-66
2021/05/13 00:33:10;;;;;;;2.22;0.80;;;13.20;72.10;;;;;;2612658;52;21021;-65
2021/05/13 00:35:37;;;;;;;1.55;0.70;;;13.10;72.00;;;;;;2363140;53;20985;-66
2021/05/13 00:38:03;;;;;;;1.75;0.70;;;13.10;72.00;;;;;;2368817;53;20947;-65
2021/05/13 00:40:33;;;;;;;3.10;0.60;;;13.10;72.80;;;;;;2617037;52;20925;-65
2021/05/13 00:43:01;;;;;;;2.72;1.00;;;13.10;72.10;;;;;;2469293;53;20950;-65
2021/05/13 00:45:30;;;;;;;1.40;0.70;;;13.00;72.00;;;;;;2366762;53;21448;-65
2021/05/13 00:48:04;;;;;;;2.60;0.80;;;13.00;72.00;;;;;;2366878;53;21017;-66
2021/05/13 00:50:31;;;;;;;1.62;0.62;;;13.00;71.90;;;;;;2566568;53;20985;-65
2021/05/13 00:52:58;;;;;;;1.62;0.50;;;13.00;71.80;;;;;;2369448;53;20923;-64
2021/05/13 00:55:24;;;;;;;2.00;0.70;;;12.90;71.70;;;;;;2621905;52;20938;-65
2021/05/13 00:57:53;;;;;;;3.62;1.10;;;12.90;71.70;;;;;;2369568;53;20906;-65
2021/05/13 01:03:05;;;;;;;1.75;0.70;;;12.90;71.60;;;;;;2371116;53;21089;-65
2021/05/13 01:05:32;;;;;;;2.40;0.90;;;12.80;71.50;;;;;;2364564;54;20927;-65
2021/05/13 01:08:00;;;;;;;3.70;0.95;;;12.80;71.60;;;;;;2369706;53;20957;-66
2021/05/13 01:10:26;;;;;;;2.20;0.80;;;12.80;71.80;;;;;;2369496;53;20946;-65
2021/05/13 01:12:54;;;;;;;2.87;0.77;;;12.70;71.90;;;;;;2369420;53;20994;-65
2021/05/13 01:15:30;;;;;;;2.50;0.80;;;12.70;72.00;;;;;;2396693;52;21825;-65
2021/05/13 01:20:55;;;;;;;2.10;0.88;;;12.60;72.00;;;;;;2369821;53;21017;-66
2021/05/13 01:23:22;;;;;;;1.30;0.65;;;12.60;72.20;;;;;;2366464;53;20980;-66
2021/05/13 01:25:54;;;;;;;2.85;1.00;;;12.60;72.30;;;;;;2347767;53;21914;-65
2021/05/13 01:28:22;;;;;;;2.30;0.90;;;12.60;72.20;;;;;;2372483;53;20930;-65
2021/05/13 01:30:50;;;;;;;2.33;0.80;;;12.60;72.40;;;;;;2361921;53;21006;-65
2021/05/13 01:33:18;;;;;;;1.67;0.75;;;12.60;72.50;;;;;;2373072;53;21469;-65
2021/05/13 01:35:44;;;;;;;3.40;1.08;;;12.60;72.60;;;;;;2354913;53;20982;-65
2021/05/13 01:38:15;;;;;;;2.33;0.70;;;12.50;72.70;;;;;;2629562;52;20985;-65
2021/05/13 01:40:49;;;;;;;2.62;1.08;;;12.50;72.90;;;;;;2369245;53;21426;-65
2021/05/13 01:43:15;;;;;;;2.65;0.70;;;12.60;73.10;;;;;;2357243;53;20940;-66
2021/05/13 01:45:41;;;;;;;1.50;0.70;;;12.50;73.20;;;;;;2357543;53;20928;-65
2021/05/13 01:48:11;;;;;;;3.15;0.77;;;12.60;73.30;;;;;;2617640;52;20980;-65
2021/05/13 01:50:39;;;;;;;1.83;0.80;;;12.60;73.30;;;;;;2353429;54;20934;-65
2021/05/13 01:53:07;;;;;;;1.67;0.80;;;12.60;73.60;;;;;;2365666;53;21022;-66
2021/05/13 01:55:34;;;;;;;2.75;0.95;;;12.60;73.70;;;;;;2369700;53;20918;-65
2021/05/13 01:58:01;;;;;;;1.77;1.00;;;12.60;73.90;;;;;;2369704;53;21866;-65
2021/05/13 02:00:27;;;;;;;3.25;1.02;;;12.70;74.00;;;;;;2369496;53;20914;-66
2021/05/13 02:02:53;;;;;;;1.80;0.80;;;12.70;74.10;;;;;;2368842;53;21045;-66
2021/05/13 02:05:20;;;;;;;1.37;0.62;;;12.70;74.20;;;;;;2369226;53;20906;-65
2021/05/13 02:07:47;;;;;;;3.05;0.80;;;12.80;74.30;;;;;;2368963;53;21377;-66
2021/05/13 02:10:14;;;;;;;1.83;0.70;;;12.80;74.30;;;;;;2376433;52;21371;-65
2021/05/13 02:12:40;;;;;;;2.62;0.80;;;12.80;74.40;;;;;;2621441;52;21459;-65
2021/05/13 02:15:09;;;;;;;2.28;0.85;;;12.90;74.50;;;;;;2368967;53;20945;-65
2021/05/13 02:17:36;;;;;;;2.35;1.00;;;12.90;74.50;;;;;;2369848;53;20905;-65
2021/05/13 02:20:04;;;;;;;2.22;0.90;;;12.90;74.50;;;;;;2438040;53;21455;-66
2021/05/13 02:22:31;;;;;;;2.00;0.90;;;13.00;74.50;;;;;;2371390;53;20938;-65
2021/05/13 02:24:58;;;;;;;3.58;1.25;;;13.00;74.60;;;;;;2361326;53;20966;-65
2021/05/13 02:27:25;;;;;;;2.08;0.90;;;13.00;74.50;;;;;;2369493;53;20925;-65
2021/05/13 02:29:52;;;;;;;3.03;0.95;;;13.10;74.70;;;;;;2369101;53;20933;-66
2021/05/13 02:32:18;;;;;;;2.72;0.80;;;13.10;74.70;;;;;;2372585;53;20990;-65
2021/05/13 02:34:44;;;;;;;1.62;0.80;;;13.10;74.70;;;;;;2360554;53;20963;-66
2021/05/13 02:37:15;;;;;;;3.50;1.17;;;13.20;74.90;;;;;;2364367;53;20914;-65
2021/05/13 02:39:41;;;;;;;2.45;1.00;;;13.20;74.60;;;;;;2353672;54;20922;-65
2021/05/13 02:42:07;;;;;;;2.10;0.88;;;13.30;74.80;;;;;;2338664;54;20931;-65
2021/05/13 02:44:33;;;;;;;2.12;0.85;;;13.30;74.80;;;;;;2503297;52;20999;-66
2021/05/13 02:47:00;;;;;;;3.17;0.85;;;13.40;74.90;;;;;;2336620;53;20945;-65
2021/05/13 02:49:26;;;;;;;2.42;0.90;;;13.40;74.80;;;;;;2341554;53;20917;-66
2021/05/13 02:51:52;;;;;;;3.50;0.98;;;13.40;74.70;;;;;;2359984;53;21091;-65
2021/05/13 02:54:20;;;;;;;3.80;0.90;;;13.40;74.70;;;;;;2383603;53;20924;-66
2021/05/13 02:56:46;;;;;;;2.30;1.00;;;13.40;74.60;;;;;;2342242;53;20912;-65
2021/05/13 02:59:15;;;;;;;2.28;0.80;;;13.50;74.50;;;;;;2344320;53;21810;-65
2021/05/13 03:01:41;;;;;;;2.30;0.80;;;13.50;74.50;;;;;;2339018;53;20953;-65
2021/05/13 03:04:07;;;;;;;2.37;0.80;;;13.50;74.30;;;;;;2341962;53;21527;-65
2021/05/13 03:06:34;;;;;;;3.62;0.95;;;13.50;74.30;;;;;;2341973;53;20937;-65
2021/05/13 03:09:02;;;;;;;2.17;0.90;;;13.50;74.20;;;;;;2353321;53;20926;-65
2021/05/13 03:11:28;;;;;;;1.87;0.70;;;13.50;74.10;;;;;;2347533;53;20912;-65
2021/05/13 03:13:56;;;;;;;3.30;0.77;;;13.50;74.00;;;;;;2341389;53;21641;-65
2021/05/13 03:16:23;;;;;;;1.65;0.70;;;13.50;74.00;;;;;;2345186;53;20935;-65
2021/05/13 03:18:54;;;;;;;1.65;0.70;;;13.50;74.00;;;;;;2587169;52;20994;-65
2021/05/13 03:21:34;;;;;;;1.55;0.70;;;13.60;74.00;;;;;;2339959;53;21442;-66
2021/05/13 03:24:09;;;;;;;4.03;0.90;;;13.60;74.00;;;;;;2357885;53;20966;-65
2021/05/13 03:27:09;;;;;;;1.85;0.80;;;13.50;73.80;;;;;;2332173;54;20954;-66
2021/05/13 03:29:35;;;;;;;2.08;0.80;;;13.60;73.80;;;;;;2363167;53;20962;-65
2021/05/13 03:32:01;;;;;;;2.28;0.80;;;13.60;73.80;;;;;;2351626;53;20977;-65
2021/05/13 03:34:28;;;;;;;2.42;0.90;;;13.50;73.70;;;;;;2353712;53;20922;-65
2021/05/13 03:36:54;;;;;;;2.00;0.80;;;13.60;73.60;;;;;;2366680;53;21842;-66
2021/05/13 03:39:23;;;;;;;2.53;0.80;;;13.50;73.40;;;;;;2352193;53;20938;-66
2021/05/13 03:41:52;;;;;;;2.17;0.65;;;13.60;73.50;;;;;;2349646;54;20994;-66
2021/05/13 03:44:19;;;;;;;1.77;0.85;;;13.50;73.50;;;;;;2346584;53;20932;-65
2021/05/13 03:46:45;;;;;;;2.72;0.98;;;13.50;73.50;;;;;;2341624;53;20913;-66
2021/05/13 03:49:12;;;;;;;2.35;0.70;;;13.50;73.50;;;;;;2345753;53;21074;-65
2021/05/13 03:51:38;;;;;;;2.53;1.00;;;13.50;73.60;;;;;;2341161;53;20985;-66
2021/05/13 03:54:05;;;;;;;3.40;1.10;;;13.50;73.60;;;;;;2345634;53;21537;-66
2021/05/13 03:56:32;;;;;;;1.95;0.90;;;13.50;73.40;;;;;;2341627;53;20928;-66
2021/05/13 03:59:08;;;;;;;2.22;1.00;;;13.50;73.30;;;;;;2346081;53;20949;-65
2021/05/13 04:05:56;;;;;;;3.25;0.90;;;13.50;73.40;;;;;;2358650;53;21769;-65
2021/05/13 04:08:22;;;;;;;2.80;0.90;;;13.50;73.40;;;;;;2367622;53;20926;-65
2021/05/13 04:10:48;;;;;;;2.95;0.93;;;13.50;73.40;;;;;;2362874;53;20947;-65
2021/05/13 04:13:15;;;;;;;2.05;0.98;;;13.50;74.20;;;;;;2365385;53;21401;-66
2021/05/13 04:15:57;;;;;;;2.00;0.80;;;13.50;73.50;;;;;;2613349;52;21415;-66
2021/05/13 04:18:24;;;;;;;2.42;1.10;;;13.50;73.50;;;;;;2369868;53;21022;-65
2021/05/13 04:20:50;;;;;;;2.42;0.90;;;13.50;73.50;;;;;;2369354;53;20926;-66
2021/05/13 04:23:19;;;;;;;2.90;0.82;;;13.50;73.50;;;;;;2369562;53;20990;-65
2021/05/13 04:25:45;;;;;;;2.60;1.00;;;13.40;73.40;;;;;;2369429;53;20926;-65
2021/05/13 04:28:12;;;;;;;1.73;0.90;;;13.50;73.60;;;;;;2408508;52;20935;-66
2021/05/13 04:30:38;;;;;;;2.08;0.90;;;13.40;73.60;;;;;;2369510;53;20914;-65
2021/05/13 04:33:05;;;;;;;3.65;1.00;;;13.50;73.80;;;;;;2369122;53;21952;-67
2021/05/13 04:35:33;;;;;;;2.30;0.90;;;13.40;73.60;;;;;;2351933;53;20967;-66
2021/05/13 04:37:59;;;;;;;2.65;1.00;;;13.40;73.60;;;;;;2365057;53;20901;-66
2021/05/13 04:40:27;;;;;;;1.60;0.70;;;13.40;73.60;;;;;;2365578;53;21089;-66
2021/05/13 04:42:53;;;;;;;4.18;1.12;;;13.50;73.80;;;;;;2357966;53;20946;-65
2021/05/13 04:45:20;;;;;;;2.17;0.95;;;13.50;73.90;;;;;;2374697;53;20922;-65
2021/05/13 04:48:21;;;;;;;3.30;0.90;;;13.50;74.00;;;;;;2364540;53;20887;-65
2021/05/13 04:50:47;;;;;;;2.33;0.90;;;13.50;74.00;;;;;;2371593;53;21002;-65
2021/05/13 04:53:15;;;;;;;1.48;0.80;;;13.50;73.90;;;;;;2623708;52;20910;-65
2021/05/13 04:55:41;;;;;;;2.80;0.90;;;13.50;74.10;;;;;;2616528;52;20949;-65
2021/05/13 04:58:11;;;;;;;2.30;1.08;;;13.50;74.10;;;;;;2370519;53;21454;-66
2021/05/13 05:00:37;;;;;;;2.37;1.10;;;13.50;74.20;;;;;;2371192;53;20990;-65
2021/05/13 05:03:04;;;;;;;2.85;1.10;;;13.50;74.30;;;;;;2371857;53;20902;-65
2021/05/13 05:05:32;;;;;;;2.28;1.00;;;13.60;74.50;;;;;;2371951;53;20950;-66
2021/05/13 05:07:59;;;;;;;2.05;1.00;;;13.60;74.70;;;;;;2372277;53;20915;-65
2021/05/13 05:10:25;;;;;;;2.33;0.95;;;13.60;74.70;;;;;;2624413;52;20949;-65
2021/05/13 05:12:51;;;;;;;3.15;1.10;;;13.70;74.90;;;;;;2373367;53;20974;-66
2021/05/13 05:15:18;;;;;;;2.58;1.10;;;13.70;75.00;;;;;;2364491;53;20919;-65
2021/05/13 05:17:44;;;;;;;2.50;1.10;;;13.70;75.00;;;;;;2371595;53;20922;-65
2021/05/13 05:20:15;;;;;;;4.15;1.12;;;13.80;75.10;;;;;;2371576;53;21798;-65
2021/05/13 05:22:42;;;;;;;3.20;1.40;;;13.80;75.80;;;;;;2365915;53;20964;-65
2021/05/13 05:25:09;;;;;;;2.28;1.08;;;13.90;75.30;;;;;;2371395;53;20918;-67
2021/05/13 05:27:36;;;;;;;4.03;1.58;;;13.90;75.30;;;;;;2371241;53;20917;-65
2021/05/13 05:30:03;;;;;;;2.92;1.40;;;13.90;75.40;;;;;;2624157;52;20942;-65
2021/05/13 05:32:29;;;;;;;3.25;1.30;;;14.00;75.70;;;;;;2362654;54;20989;-65
2021/05/13 05:34:56;;;;;;;2.28;1.33;;;14.00;75.80;;;;;;2366767;53;20918;-65
2021/05/13 05:37:22;;;;;;;4.00;1.42;;;14.10;75.90;;;;;;2371521;53;20941;-65
2021/05/13 05:39:48;;;;;;;3.97;1.58;;;14.10;76.00;;;;;;2368664;53;20934;-66
2021/05/13 05:42:16;;;;;;;2.78;1.30;;;14.20;76.10;;;;;;2370410;53;20965;-65
2021/05/13 05:44:42;;;;;;;2.90;1.50;;;14.30;76.40;;;;;;2358999;53;20989;-66
2021/05/13 05:47:11;;;;;;;2.87;1.42;;;14.30;76.60;;;;;;2369525;53;20969;-67
2021/05/13 05:49:37;;;;;;;3.70;1.87;;;14.40;77.50;;;;;;2371681;53;20970;-65
2021/05/13 05:52:07;;;;;;;3.85;1.60;;;14.50;76.90;;;;;;2623125;52;20937;-65
2021/05/13 05:54:33;;;;;;;4.37;1.58;;;14.60;77.70;;;;;;2616137;52;20986;-66
2021/05/13 05:56:59;;;;;;;5.22;1.45;;;14.70;77.10;;;;;;2371621;53;20879;-65
2021/05/13 05:59:25;;;;;;;5.07;2.08;;;14.70;77.00;;;;;;2371187;53;21032;-66
2021/05/13 06:01:52;;;;;;;3.92;1.80;;;14.80;77.10;;;;;;2614334;52;20950;-65
2021/05/13 06:04:18;;;;;;;4.25;1.37;;;14.90;77.20;;;;;;2366821;53;20925;-66
2021/05/13 06:06:44;;;;;;;3.85;1.50;;;15.00;77.20;;;;;;2616775;52;20962;-66
2021/05/13 06:09:11;;;;;;;3.17;1.55;;;15.00;77.20;;;;;;2369526;53;21753;-66
2021/05/13 06:11:37;;;;;;;3.37;1.50;;;15.10;77.10;;;;;;2372005;53;21425;-66
2021/05/13 06:14:04;;;;;;;3.67;1.42;;;15.20;77.10;;;;;;2370901;53;20902;-66
2021/05/13 06:16:31;;;;;;;3.90;1.67;;;15.30;77.10;;;;;;2373791;53;21404;-67
2021/05/13 06:18:58;;;;;;;3.42;1.77;;;15.30;76.90;;;;;;2364825;53;21044;-65
2021/05/13 06:21:24;;;;;;;3.55;2.12;;;15.40;76.70;;;;;;2371537;53;20934;-66
2021/05/13 06:23:54;;;;;;;5.15;2.00;;;15.40;76.40;;;;;;2371294;53;20946;-67
2021/05/13 06:26:31;;;;;;;3.92;1.70;;;15.50;76.20;;;;;;2371581;53;21007;-66
2021/05/13 06:28:59;;;;;;;5.47;1.80;;;15.50;75.40;;;;;;2371011;53;20997;-66
2021/05/13 06:31:26;;;;;;;3.40;1.90;;;15.60;75.90;;;;;;2372059;53;20926;-66
2021/05/13 06:33:52;;;;;;;5.25;2.03;;;15.60;75.70;;;;;;2370987;53;20958;-66
2021/05/13 06:36:18;;;;;;;4.70;2.30;;;15.60;75.70;;;;;;2370183;53;20933;-66
2021/05/13 06:38:49;;;;;;;4.40;2.20;;;15.70;75.70;;;;;;2371574;53;20930;-66
2021/05/13 06:41:15;;;;;;;3.50;1.67;;;15.70;75.70;;;;;;2367188;53;20913;-66
2021/05/13 06:43:43;;;;;;;3.80;1.77;;;15.70;76.00;;;;;;2371439;53;20894;-67
2021/05/13 06:46:09;;;;;;;3.70;1.85;;;15.80;76.20;;;;;;2362629;53;21010;-66
2021/05/13 06:48:36;;;;;;;3.28;1.67;;;15.80;76.40;;;;;;2370998;53;20942;-66
2021/05/13 06:51:02;;;;;;;3.60;1.90;;;15.90;76.60;;;;;;2371134;53;21006;-65
2021/05/13 06:53:29;;;;;;;4.05;2.17;;;15.90;76.40;;;;;;2371641;53;20930;-66
2021/05/13 06:55:56;;;;;;;4.40;2.70;;;16.00;76.50;;;;;;2370542;53;20933;-66
2021/05/13 06:58:23;;;;;;;3.72;2.22;;;16.00;76.30;;;;;;2371070;53;20990;-66
2021/05/13 07:00:49;;;;;;;3.67;2.00;;;16.10;76.30;;;;;;2371202;53;20914;-66
2021/05/13 07:03:16;;;;;;;4.60;1.87;;;16.20;76.20;;;;;;2370631;53;20962;-66
2021/05/13 07:05:55;;;;;;;5.25;1.87;;;16.20;75.70;;;;;;2371565;53;20953;-68
2021/05/13 07:08:21;;;;;;;4.03;2.00;;;16.20;75.60;;;;;;2372394;53;20957;-65
2021/05/13 07:10:50;;;;;;;4.47;1.60;;;16.30;75.40;;;;;;2366012;53;20914;-66
2021/05/13 07:13:16;;;;;;;6.03;2.20;;;16.30;75.00;;;;;;2365555;53;21001;-66
2021/05/13 07:15:42;;;;;;;3.30;1.50;;;16.30;74.50;;;;;;2371416;53;20966;-66
2021/05/13 07:18:15;;;;;;;3.62;1.90;;;16.30;74.70;;;;;;2371722;53;21009;-66
2021/05/13 07:20:42;;;;;;;5.20;2.20;;;16.30;74.50;;;;;;2372660;53;20997;-66
2021/05/13 07:23:08;;;;;;;3.78;2.10;;;16.40;74.50;;;;;;2373007;53;21093;-67
2021/05/13 07:25:36;;;;;;;4.72;2.17;;;16.40;74.50;;;;;;2364335;53;20918;-65
2021/05/13 07:28:03;;;;;;;3.33;1.55;;;16.40;74.90;;;;;;2371596;53;20918;-66
2021/05/13 07:30:30;;;;;;;4.10;2.20;;;16.50;75.50;;;;;;2369890;53;20949;-66
2021/05/13 07:32:56;;;;;;;4.18;2.10;;;16.50;75.80;;;;;;2363251;53;21541;-68
2021/05/13 07:35:22;;;;;;;3.12;1.73;;;16.60;76.40;;;;;;2371460;53;21411;-68
2021/05/13 07:37:49;;;;;;;5.10;2.72;;;16.70;77.00;;;;;;2370304;53;20914;-68
2021/05/13 07:40:20;;;;;;;4.72;2.33;;;16.80;76.80;;;;;;2367489;53;20925;-68
2021/05/13 07:42:46;;;;;;;3.90;2.05;;;17.00;76.40;;;;;;2618146;52;20936;-66
2021/05/13 07:45:13;;;;;;;5.03;2.40;;;17.10;76.90;;;;;;2617450;52;20953;-67
2021/05/13 07:47:42;;;;;;;3.70;2.12;;;17.20;76.60;;;;;;2361848;53;21808;-66
2021/05/13 07:50:13;;;;;;;6.68;2.28;;;17.30;76.60;;;;;;2628298;52;20973;-67
2021/05/13 07:52:40;;;;;;;4.37;1.80;;;17.40;76.80;;;;;;2370653;53;21049;-66
2021/05/13 07:55:07;;;;;;;3.97;1.87;;;17.50;77.00;;;;;;2614198;52;21488;-67
2021/05/13 07:57:35;;;;;;;5.43;2.28;;;17.60;76.60;;;;;;2367841;53;21482;-67
2021/05/13 08:00:03;;;;;;;4.12;1.90;;;17.70;74.90;;;;;;2371320;53;21742;-66
2021/05/13 08:02:29;;;;;;;4.45;1.90;;;17.70;74.50;;;;;;2371088;53;20990;-67
2021/05/13 08:04:55;;;;;;;3.70;2.10;;;17.80;73.10;;;;;;2482026;52;20945;-68
2021/05/13 08:07:22;;;;;;;4.85;2.12;;;17.80;72.70;;;;;;2369574;53;20923;-66
2021/05/13 08:09:50;;;;;;;3.60;2.08;;;17.80;72.60;;;;;;2368856;53;20958;-68
2021/05/13 08:12:17;;;;;;;3.40;1.73;;;17.80;73.00;;;;;;2360736;54;20935;-67
2021/05/13 08:14:44;;;;;;;5.87;2.42;;;17.70;73.00;;;;;;2371229;53;20954;-67
2021/05/13 08:17:13;;;;;;;4.45;2.30;;;17.80;72.90;;;;;;2538994;52;20906;-67
2021/05/13 08:19:39;;;;;;;3.75;2.00;;;17.80;73.10;;;;;;2371656;53;20910;-70
2021/05/13 08:22:06;;;;;;;3.80;2.03;;;17.80;72.60;;;;;;2370405;53;20946;-66
2021/05/13 08:24:33;;;;;;;3.72;1.98;;;17.80;71.80;;;;;;2583899;52;20999;-66
2021/05/13 08:27:01;;;;;;;6.90;2.08;;;17.80;72.70;;;;;;2369237;53;20913;-67
2021/05/13 08:29:28;;;;;;;3.40;1.90;;;17.80;72.80;;;;;;2352226;53;20992;-66
2021/05/13 08:31:55;;;;;;;3.60;1.77;;;17.80;72.80;;;;;;2369465;53;20925;-68
2021/05/13 08:34:22;;;;;;;5.12;1.80;;;17.80;72.00;;;;;;2366388;53;20962;-67
2021/05/13 08:36:48;;;;;;;4.22;2.03;;;17.90;72.10;;;;;;2368948;53;21019;-67
2021/05/13 08:39:14;;;;;;;5.10;2.10;;;17.90;71.30;;;;;;2536370;52;20957;-67
2021/05/13 08:41:41;;;;;;;3.70;1.92;;;17.90;71.20;;;;;;2367340;53;20945;-67
2021/05/13 08:44:08;;;;;;;5.53;1.65;;;17.90;71.80;;;;;;2369145;53;20914;-66
2021/05/13 08:46:38;;;;;;;3.00;1.67;;;17.90;71.60;;;;;;2371627;53;20915;-67
2021/05/13 08:49:05;;;;;;;4.28;1.92;;;17.90;71.80;;;;;;2366609;53;20917;-68
2021/05/13 08:51:32;;;;;;;3.33;1.65;;;17.90;71.20;;;;;;2466238;52;20943;-67
2021/05/13 08:53:59;;;;;;;4.05;1.60;;;17.90;71.70;;;;;;2367102;53;20977;-66
2021/05/13 08:56:26;;;;;;;4.90;1.95;;;17.90;71.30;;;;;;2370454;53;21498;-68
2021/05/13 08:58:53;;;;;;;4.15;1.75;;;18.00;70.10;;;;;;2370924;53;20950;-67
2021/05/13 09:01:22;;;;;;;4.22;1.65;;;18.00;69.10;;;;;;2376621;52;30278;-69
2021/05/13 09:03:49;;;;;;;3.58;1.50;;;17.90;70.40;;;;;;2460853;53;20976;-67
2021/05/13 09:06:26;;;;;;;3.75;1.50;;;18.00;70.90;;;;;;2321368;54;20927;-66
2021/05/13 09:08:53;;;;;;;5.53;1.58;;;18.00;70.60;;;;;;2316853;54;21735;-67
2021/05/13 09:11:19;;;;;;;3.05;1.33;;;18.00;71.10;;;;;;2310963;54;21045;-66
2021/05/13 09:14:02;;;;;;;3.78;1.55;;;18.10;71.30;;;;;;2315889;54;20965;-67
2021/05/13 09:16:37;;;;;;;3.22;1.27;;;18.10;70.00;;;;;;2404351;53;20941;-67
2021/05/13 09:19:19;;;;;;;4.72;1.65;;;18.20;71.00;;;;;;2316951;54;21421;-67
2021/05/13 09:22:08;;;;;;;3.33;1.37;;;18.30;70.30;;;;;;2323188;54;21017;-66
2021/05/13 09:28:06;;;;;;;2.33;1.02;;;18.30;69.70;;;;;;2313424;54;20996;-69
2021/05/13 09:30:33;;;;;;;2.53;0.93;;;18.50;69.40;;;;;;2442931;53;20983;-66
2021/05/13 09:33:00;;;;;;;2.10;0.90;;;18.60;70.20;;;;;;2312993;54;20920;-67
2021/05/13 09:35:34;;;;;;;2.65;0.88;;;18.60;70.40;;;;;;2571062;53;21003;-67
2021/05/13 09:38:01;;;;;;;3.25;0.90;;;18.70;70.80;;;;;;2530591;53;20995;-67
2021/05/13 09:41:01;;;;;;;2.83;0.88;;;18.80;70.50;;;;;;2330990;54;20991;-70
2021/05/13 09:43:31;;;;;;;2.53;0.70;;;18.80;68.30;;;;;;2299219;54;21024;-67
2021/05/13 09:46:01;;;;;;;2.00;0.60;;;18.90;71.00;;;;;;2307827;54;21416;-66
2021/05/13 09:49:28;;;;;;;1.85;0.73;;;18.90;70.80;;;;;;2313301;54;21417;-67
2021/05/13 09:51:54;;;;;;;2.00;0.60;;;19.00;68.90;;;;;;2557153;53;21069;-67
2021/05/13 09:54:21;;;;;;;0.80;0.40;;;19.00;70.60;;;;;;2314929;54;20940;-66
2021/05/13 09:56:51;;;;;;;1.30;0.60;;;19.00;70.30;;;;;;2562829;53;20957;-67
2021/05/13 09:59:36;;;;;;;2.30;0.57;;;19.10;70.10;;;;;;2487549;52;20974;-67
2021/05/13 10:02:04;;;;;;;1.65;0.60;;;19.10;68.50;;;;;;2343649;54;21050;-70
2021/05/13 10:04:31;;;;;;;0.80;0.50;;;19.10;68.70;;;;;;2339856;54;21048;-67
2021/05/13 10:07:00;;;;;;;2.17;0.50;;;19.10;67.30;;;;;;2369939;53;20984;-67
2021/05/13 10:09:27;;;;;;;2.03;0.40;;;19.10;65.80;;;;;;2327660;55;20943;-66
2021/05/13 10:11:57;;;;;;;1.50;0.55;;;19.10;65.60;;;;;;2338991;54;20940;-68
2021/05/13 10:14:25;;;;;;;1.25;0.50;;;19.10;65.80;;;;;;2339036;54;21743;-67
2021/05/13 10:17:00;;;;;;;0.80;0.37;;;19.10;66.00;;;;;;2322811;53;20949;-67
2021/05/13 10:19:45;;;;;;;0.90;0.45;;;19.00;66.40;;;;;;2339654;54;20938;-67
2021/05/13 10:22:17;;;;;;;1.58;0.37;;;19.00;66.40;;;;;;2335836;54;20952;-66
2021/05/13 10:25:29;;;;;;;0.68;0.30;;;19.00;67.00;;;;;;2341478;54;21052;-67
2021/05/13 10:28:02;;;;;;;2.97;0.47;;;19.10;66.20;;;;;;2584902;52;21736;-67
2021/05/13 10:30:32;;;;;;;2.00;0.30;;;19.10;66.00;;;;;;2334289;54;20965;-66
2021/05/13 10:33:12;;;;;;;1.52;0.40;;;19.10;66.00;;;;;;2328668;54;20938;-67
2021/05/13 10:35:39;;;;;;;0.98;0.22;;;19.00;63.30;;;;;;2338262;54;20924;-68
2021/05/13 10:38:14;;;;;;;1.25;0.20;;;19.00;65.50;;;;;;2584651;52;21012;-68
2021/05/13 10:43:27;;;;;;;0.47;0.20;;;18.80;64.30;;;;;;2438412;52;20948;-69
2021/05/13 10:45:54;;;;;;;0.65;0.30;;;18.80;64.50;;;;;;2341155;54;21820;-68
2021/05/13 10:48:39;;;;;;;0.50;0.20;;;18.70;64.20;;;;;;2343299;54;21034;-68
2021/05/13 10:51:07;;;;;;;0.70;0.32;;;18.60;64.50;;;;;;2327783;54;20980;-68
2021/05/13 10:53:42;;;;;;;1.80;0.20;;;18.60;65.60;;;;;;2326374;53;20964;-65
2021/05/13 10:56:40;;;;;;;1.25;0.37;;;18.60;64.90;;;;;;2556840;53;21017;-66
2021/05/13 10:59:15;;;;;;;0.88;0.30;;;18.60;64.80;;;;;;2317408;53;21393;-66
2021/05/13 11:01:52;;;;;;;1.40;0.20;;;18.50;64.20;;;;;;2557273;53;20953;-68
2021/05/13 11:04:34;;;;;;;0.77;0.30;;;18.50;63.40;;;;;;2542404;53;20949;-67
2021/05/13 11:07:26;;;;;;;1.08;0.43;;;18.40;62.10;;;;;;2354755;53;20991;-68
2021/05/13 11:09:53;;;;;;;2.28;1.15;;;18.30;62.10;;;;;;2318578;54;20917;-67
2021/05/13 11:12:37;;;;;;;0.75;0.30;;;18.20;63.80;;;;;;2305635;54;20968;-67
2021/05/13 11:15:29;;;;;;;1.20;0.30;;;18.10;62.50;;;;;;2343703;54;20977;-66
2021/05/13 11:18:06;;;;;;;0.50;0.30;;;17.90;63.40;;;;;;2343841;54;20947;-67
2021/05/13 11:20:40;;;;;;;1.65;0.40;;;17.80;63.80;;;;;;2390953;54;20940;-67
2021/05/13 11:23:29;;;;;;;3.05;0.40;;;17.70;64.00;;;;;;2308513;54;21016;-68
2021/05/13 11:26:03;;;;;;;0.25;0.20;;;17.70;62.80;;;;;;2385419;53;21509;-66
2021/05/13 11:28:51;;;;;;;0.57;0.20;;;17.50;64.10;;;;;;2316653;54;21441;-67
2021/05/13 11:31:20;;;;;;;0.85;0.30;;;17.50;64.40;;;;;;2315653;54;20992;-68
2021/05/13 11:33:51;;;;;;;0.85;0.30;;;17.40;65.90;;;;;;2324006;54;20993;-66
2021/05/13 11:36:37;;;;;;;0.93;0.40;;;17.40;65.30;;;;;;2557952;52;21747;-67
2021/05/13 11:39:10;;;;;;;0.85;0.30;;;17.30;64.20;;;;;;2339787;54;20920;-66
2021/05/13 11:41:36;;;;;;;0.95;0.30;;;17.30;64.50;;;;;;2590292;52;21273;-66
2021/05/13 11:44:03;;;;;;;1.05;0.40;;;17.20;64.30;;;;;;2343686;54;20990;-66
2021/05/13 11:46:30;;;;;;;0.57;0.28;;;17.20;64.90;;;;;;2590534;52;21029;-68
2021/05/13 11:48:57;;;;;;;1.40;0.60;;;17.10;64.60;;;;;;2341475;54;20951;-67
2021/05/13 11:51:27;;;;;;;1.85;0.30;;;17.10;64.60;;;;;;2417192;52;21062;-67
2021/05/13 11:53:56;;;;;;;0.50;0.30;;;17.00;64.70;;;;;;2343099;54;20926;-67
2021/05/13 11:56:22;;;;;;;1.05;0.40;;;17.00;65.40;;;;;;2343292;54;21057;-67
2021/05/13 11:58:52;;;;;;;1.85;0.50;;;17.00;66.00;;;;;;2589550;52;20899;-66
2021/05/13 12:01:40;;;;;;;1.00;0.40;;;16.90;66.40;;;;;;2343730;54;21007;-67
2021/05/13 12:04:24;;;;;;;1.08;0.37;;;16.90;65.10;;;;;;2343569;54;20959;-68
2021/05/13 12:07:02;;;;;;;0.55;0.30;;;16.90;66.30;;;;;;2590465;52;21001;-66
2021/05/13 12:09:35;;;;;;;1.42;0.52;;;16.90;66.30;;;;;;2343457;54;20954;-66
2021/05/13 12:12:02;;;;;;;0.70;0.30;;;16.90;66.30;;;;;;2590298;52;20986;-66
2021/05/13 12:14:31;;;;;;;0.98;0.30;;;16.90;66.70;;;;;;2343206;54;21070;-65
2021/05/13 12:16:59;;;;;;;0.95;0.40;;;16.90;66.70;;;;;;2344308;54;21525;-66
2021/05/13 12:19:27;;;;;;;1.58;0.40;;;16.90;66.30;;;;;;2343119;54;20938;-67
2021/05/13 12:21:54;;;;;;;0.82;0.20;;;16.90;66.60;;;;;;2346888;54;20925;-66
2021/05/13 12:24:31;;;;;;;1.10;0.43;;;16.90;66.70;;;;;;2332550;54;21797;-67
2021/05/13 12:26:57;;;;;;;0.40;0.30;;;16.90;66.10;;;;;;2327455;54;21009;-66
2021/05/13 12:29:25;;;;;;;0.85;0.40;;;16.90;66.90;;;;;;2343484;54;20926;-68
2021/05/13 12:31:51;;;;;;;0.60;0.30;;;16.90;67.00;;;;;;2343130;54;21792;-66
2021/05/13 12:34:42;;;;;;;1.00;0.30;;;16.80;67.00;;;;;;2343504;54;20939;-66
2021/05/13 12:37:09;;;;;;;0.70;0.40;;;16.80;64.90;;;;;;2339367;54;20895;-66
2021/05/13 12:39:38;;;;;;;1.60;0.40;;;16.80;65.90;;;;;;2451663;52;20970;-65
2021/05/13 12:42:28;;;;;;;0.65;0.50;;;16.70;66.30;;;;;;2423133;52;21820;-67
2021/05/13 12:51:47;;;;;;;1.10;0.40;;;16.70;65.60;;;;;;2343394;54;20978;-66
2021/05/13 12:54:17;;;;;;;1.15;0.40;;;16.70;65.80;;;;;;2550188;52;20941;-67
2021/05/13 12:56:44;;;;;;;1.15;0.40;;;16.70;67.30;;;;;;2339375;54;20997;-66
2021/05/13 12:59:11;;;;;;;0.98;0.35;;;16.70;67.90;;;;;;2586366;52;21054;-67
2021/05/13 13:01:42;;;;;;;0.77;0.40;;;16.60;68.00;;;;;;2343253;54;21507;-68
2021/05/13 13:04:09;;;;;;;1.05;0.50;;;16.60;67.70;;;;;;2590538;52;21093;-67
2021/05/13 13:06:52;;;;;;;1.00;0.45;;;16.70;68.30;;;;;;2590124;52;21024;-67
2021/05/13 13:09:35;;;;;;;1.00;0.30;;;16.70;67.60;;;;;;2590495;52;20958;-67
2021/05/13 13:12:09;;;;;;;1.40;0.50;;;16.70;67.60;;;;;;2343814;54;21799;-66
2021/05/13 13:14:43;;;;;;;1.25;0.37;;;16.70;68.10;;;;;;2343084;54;20930;-67
2021/05/13 13:17:23;;;;;;;1.17;0.40;;;16.70;68.90;;;;;;2589572;52;20954;-66
2021/05/13 13:20:09;;;;;;;1.62;0.40;;;16.70;67.90;;;;;;2341720;54;20932;-67
2021/05/13 13:22:38;;;;;;;1.02;0.40;;;16.70;68.40;;;;;;2341333;54;21729;-66
2021/05/13 13:25:09;;;;;;;0.90;0.30;;;16.80;69.30;;;;;;2322873;54;21464;-66